الصفحة الرئيسية
METAR-TAF:

METAR-TAF

مطار :

مطار واغادوغو

واغادوغو, بوركينا فاسو

دائرة عرض: 12-21N, خط طول: 001-31W, ارتفاع: 316 متر

مراقبة الطقس الحالي

تاريخ ووقت الإصدار 23 دقيقة قبل الساعة 23:00UTC
ريح 4 عقدة من الشمال
درجة الحرارة 32°درجة مئوية
الرطوبة 12%
ضغط 1011 hPa
الرؤية 10 كم أو أكثر
الغيوم لا تقل 1500 م ولا وجود لمزنة ركامية السحاب الأسود

METAR: DFFD 232300Z 01004KT CAVOK 32/M01 Q1011 NOSIG

زمن: 23:23 (23:23 UTC)

توقعات

تاريخ ووقت الإصدار 6ساعات و 23 دقيقة قبل الساعة 17:00UTC
التوقعات صالحة من23 الساعة 18 UTC إلى 24 الساعة 24 UTC
ريح 8 عقدة من الشمال/الشمال الشرقي
الرؤية: 8000 متر

TAF: DFFD 231700Z 2318/2424 03008KT 8000 NSC

أرصاد الطقس والتوقعات من أكثر من 4000 مطار (تقارير الطقس للمطار METAR والتنبؤ بالطقس بالمطارTAF).

المحطات المتاحة هي النقط الصفراء والحمراء على الخريطة.

حرك المؤشر فوق النقطة لمعرفة اسم المحطة.

ثم انقر لمعرفة أرصاد وتوقعات الطقس.

لتغيير الخارطة: اضغط على الأزرار الخضراء مع رمز الصليب الأسود للتكبير. على الزر الأخضر مع شرطة للتصغير، أو على الأسهم الخضراء للخرائط المجاورة.


METAR-TAF: